Change the Weather History Date:

Tuesday, May 14, 2013

  Actual Average (KDFW) Record (KDFW)
Temperature  
Mean Temperature 73 °F 73 °F  
Max Temperature 86 °F 83 °F 95 °F (1955)
Min Temperature 60 °F 64 °F 42 °F (1971)
Degree Days  
Heating Degree Days 0 0  
Month to date heating degree days 6  
Since 1 July heating degree days 2282  
Cooling Degree Days 8 9  
Month to date cooling degree days 98  
Year to date cooling degree days 236  
Growing Degree Days 23 (Base 50)    
Moisture  
Dew Point 55 °F    
Average Humidity 56    
Maximum Humidity 88    
Minimum Humidity 30    
Precipitation  
Precipitation 0.00 in 0.17 in 2.41 in (1910)
Month to date precipitation 2.24  
Year to date precipitation 13.59  
Sea Level Pressure  
Sea Level Pressure 30.09 in    
Wind  
Wind Speed 11 mph (South)    
Max Wind Speed 21 mph    
Max Gust Speed 28 mph    
Visibility 10 miles    
Events      
T = Trace of Precipitation, MM = Missing Value Source: NWS Daily Summary

Daily Weather History Graph

Daily Weather History Graph

Search for Another Location

Airport or City:

Trip Planner

Search our weather history database for the weather conditions in past years. The results will help you decide how hot, cold, wet, or windy it might be!

Date:

Astronomy

May. 14, 2013 Rise Set
Actual Time 6:27 AM CDT 8:17 PM CDT
Civil Twilight 5:59 AM CDT 8:44 PM CDT
Nautical Twilight 5:27 AM CDT 9:17 PM CDT
Astronomical Twilight 4:52 AM CDT 9:52 PM CDT
Moon 10:07 AM CDT (5/14) No Moon Set
Length of Visible Light 14h 44m
Length of Day
13h 50m
Waxing Crescent, 19% of the Moon is Illuminated
May 14
Waxing Crescent
May 17
First Quarter
May 24
Full
May 31
Last Quarter
Jun 8
New

Hourly Weather History & Observations

Time (CDT) Temp. Heat Index Dew Point Humidity Pressure Visibility Wind Dir Wind Speed Gust Speed Precip Events Conditions
12:15 AM 67.6 °F - 47.5 °F 48% 30.15 in 10.0 mi South 10.4 mph - N/A   Clear
12:35 AM 67.3 °F - 47.3 °F 49% 30.15 in 10.0 mi South 10.4 mph - N/A   Clear
12:55 AM 66.9 °F - 47.3 °F 49% 30.14 in 10.0 mi South 10.4 mph - N/A   Clear
1:15 AM 66.2 °F - 47.5 °F 51% 30.14 in 10.0 mi South 10.4 mph - N/A   Clear
1:35 AM 65.3 °F - 48.0 °F 54% 30.14 in 10.0 mi South 9.2 mph - N/A   Clear
1:55 AM 64.8 °F - 48.6 °F 56% 30.13 in 10.0 mi South 8.1 mph - N/A   Clear
2:15 AM 63.9 °F - 48.9 °F 58% 30.12 in 10.0 mi SSE 8.1 mph - N/A   Clear
2:35 AM 62.8 °F - 49.3 °F 61% 30.12 in 10.0 mi South 6.9 mph - N/A   Clear
2:55 AM 62.6 °F - 50.2 °F 64% 30.12 in 10.0 mi South 8.1 mph - N/A   Clear
3:15 AM 63.3 °F - 51.1 °F 64% 30.11 in 10.0 mi South 11.5 mph 18.4 mph N/A   Clear
3:35 AM 63.5 °F - 52.0 °F 66% 30.11 in 10.0 mi South 10.4 mph 19.6 mph N/A   Clear
3:55 AM 63.9 °F - 53.2 °F 68% 30.11 in 10.0 mi South 12.7 mph 21.9 mph N/A   Clear
4:15 AM 64.8 °F - 54.3 °F 69% 30.12 in 10.0 mi South 18.4 mph 23.0 mph N/A   Clear
4:35 AM 64.2 °F - 54.5 °F 71% 30.12 in 10.0 mi South 12.7 mph 24.2 mph N/A   Clear
4:55 AM 63.3 °F - 54.7 °F 73% 30.11 in 10.0 mi South 12.7 mph 21.9 mph N/A   Clear
5:15 AM 62.1 °F - 54.5 °F 76% 30.12 in 10.0 mi South 11.5 mph 20.7 mph N/A   Clear
5:35 AM 61.3 °F - 55.4 °F 81% 30.12 in 10.0 mi South 11.5 mph 16.1 mph N/A   Clear
5:55 AM 61.0 °F - 55.8 °F 83% 30.12 in 10.0 mi South 9.2 mph 19.6 mph N/A   Clear
6:15 AM 60.1 °F - 55.6 °F 85% 30.12 in 10.0 mi South 8.1 mph 18.4 mph N/A   Clear
6:35 AM 60.1 °F - 56.3 °F 87% 30.12 in 10.0 mi South 6.9 mph - N/A   Clear
6:55 AM 60.4 °F - 56.8 °F 88% 30.13 in 10.0 mi South 8.1 mph - N/A   Clear
7:15 AM 61.3 °F - 57.4 °F 87% 30.13 in 10.0 mi South 8.1 mph 17.3 mph N/A   Clear
7:35 AM 62.1 °F - 57.7 °F 86% 30.14 in 10.0 mi South 10.4 mph 18.4 mph N/A   Clear
7:55 AM 63.1 °F - 58.3 °F 84% 30.14 in 10.0 mi South 11.5 mph 19.6 mph N/A   Clear
8:15 AM 64.8 °F - 58.8 °F 81% 30.15 in 10.0 mi South 15.0 mph 21.9 mph N/A   Clear
8:35 AM 66.6 °F - 58.8 °F 76% 30.15 in 10.0 mi SSW 13.8 mph 24.2 mph N/A   Clear
8:55 AM 68.0 °F - 59.0 °F 73% 30.16 in 10.0 mi South 11.5 mph 21.9 mph N/A   Clear
9:15 AM 68.5 °F - 59.0 °F 72% 30.16 in 10.0 mi South 15.0 mph 24.2 mph N/A   Clear
9:35 AM 70.0 °F - 59.0 °F 68% 30.16 in 10.0 mi SSW 11.5 mph 23.0 mph N/A   Clear
10:15 AM 73.6 °F - 59.4 °F 61% 30.16 in 10.0 mi SSW 12.7 mph 20.7 mph N/A   Clear
10:35 AM 75.2 °F - 59.2 °F 57% 30.17 in 10.0 mi SSW 10.4 mph 25.3 mph N/A   Clear
10:55 AM 76.1 °F - 59.9 °F 57% 30.17 in 10.0 mi SSW 11.5 mph - N/A   Clear
11:15 AM 77.4 °F - 60.4 °F 56% 30.17 in 10.0 mi South 11.5 mph 19.6 mph N/A   Clear
11:35 AM 78.8 °F - 60.6 °F 54% 30.17 in 10.0 mi SSW 11.5 mph 19.6 mph N/A   Clear
11:55 AM 79.0 °F - 60.1 °F 52% 30.16 in 10.0 mi SSW 12.7 mph 24.2 mph N/A   Clear
12:15 PM 79.9 °F - 60.8 °F 52% 30.15 in 10.0 mi South 13.8 mph 17.3 mph N/A   Clear
12:35 PM 81.0 °F 81.6 °F 60.1 °F 49% 30.14 in 10.0 mi SSE 13.8 mph 18.4 mph N/A   Clear
12:55 PM 81.9 °F 82.2 °F 59.7 °F 47% 30.13 in 10.0 mi South 16.1 mph 21.9 mph N/A   Clear
1:15 PM 83.1 °F 83.2 °F 59.7 °F 45% 30.12 in 10.0 mi SSE 12.7 mph 24.2 mph N/A   Clear
1:35 PM 82.9 °F 82.8 °F 58.6 °F 44% 30.11 in 10.0 mi SSE 10.4 mph 21.9 mph N/A   Clear
1:55 PM 84.0 °F 83.6 °F 58.6 °F 42% 30.10 in 10.0 mi South 16.1 mph 23.0 mph N/A   Clear
2:15 PM 84.4 °F 83.7 °F 57.6 °F 40% 30.09 in 10.0 mi SSE 15.0 mph 20.7 mph N/A   Clear
2:35 PM 84.6 °F 83.4 °F 55.8 °F 37% 30.09 in 10.0 mi South 17.3 mph 23.0 mph N/A   Clear
2:55 PM 84.7 °F 83.9 °F 57.6 °F 39% 30.08 in 10.0 mi SSE 12.7 mph 26.5 mph N/A   Clear
3:15 PM 85.3 °F 84.4 °F 57.4 °F 39% 30.07 in 10.0 mi South 15.0 mph 21.9 mph N/A   Clear
3:35 PM 85.3 °F 83.8 °F 55.0 °F 35% 30.06 in 10.0 mi South 16.1 mph 23.0 mph N/A   Clear
3:55 PM 85.5 °F - 52.0 °F 31% 30.06 in 10.0 mi South 17.3 mph 25.3 mph N/A   Clear
4:35 PM 86.0 °F - 52.7 °F 32% 30.04 in 10.0 mi SSW 18.4 mph 24.2 mph N/A   Clear
4:55 PM 85.3 °F - 52.7 °F 33% 30.04 in 10.0 mi South 20.7 mph 27.6 mph N/A   Clear
5:15 PM 85.3 °F - 50.9 °F 30% 30.03 in 10.0 mi South 16.1 mph 26.5 mph N/A   Clear
5:35 PM 84.7 °F - 51.3 °F 31% 30.02 in 10.0 mi South 13.8 mph 25.3 mph N/A   Clear
5:55 PM 84.2 °F - 51.4 °F 32% 30.02 in 10.0 mi South 15.0 mph 25.3 mph N/A   Clear
6:15 PM 83.8 °F 82.4 °F 53.4 °F 35% 30.01 in 10.0 mi South 17.3 mph 24.2 mph N/A   Clear
6:35 PM 83.5 °F 82.4 °F 54.5 °F 37% 30.00 in 10.0 mi SSE 12.7 mph 21.9 mph N/A   Clear
7:15 PM 81.9 °F 81.0 °F 53.4 °F 37% 29.99 in 10.0 mi SSE 17.3 mph 24.2 mph N/A   Clear
7:35 PM 80.8 °F 80.4 °F 53.8 °F 39% 29.99 in 10.0 mi SSE 13.8 mph - N/A   Clear
7:55 PM 79.2 °F - 53.8 °F 41% 29.99 in 10.0 mi SSE 6.9 mph - N/A   Clear
8:15 PM 77.9 °F - 53.1 °F 42% 30.00 in 10.0 mi SSE 6.9 mph - N/A   Clear
8:35 PM 76.5 °F - 53.6 °F 45% 30.00 in 10.0 mi SSE 8.1 mph - N/A   Clear
8:55 PM 75.4 °F - 54.5 °F 48% 30.00 in 10.0 mi SSE 8.1 mph - N/A   Clear
9:15 PM 74.1 °F - 55.4 °F 52% 30.00 in 10.0 mi SE 8.1 mph - N/A   Clear
9:35 PM 73.6 °F - 55.8 °F 54% 30.02 in 10.0 mi ESE 11.5 mph - N/A   Clear
9:55 PM 71.6 °F - 55.6 °F 57% 30.02 in 10.0 mi ESE 9.2 mph - N/A   Clear
10:15 PM 71.6 °F - 56.3 °F 58% 30.02 in 10.0 mi ESE 9.2 mph - N/A   Clear
10:35 PM 71.8 °F - 57.2 °F 60% 30.03 in 10.0 mi ESE 10.4 mph - N/A   Clear
10:55 PM 71.6 °F - 57.7 °F 62% 30.03 in 10.0 mi SE 10.4 mph 16.1 mph N/A   Clear
11:15 PM 71.6 °F - 58.1 °F 62% 30.04 in 10.0 mi SE 10.4 mph 16.1 mph N/A   Clear
11:35 PM 71.8 °F - 59.0 °F 64% 30.04 in 10.0 mi SSE 13.8 mph 18.4 mph N/A   Clear
11:55 PM 71.6 °F - 59.5 °F 66% 30.04 in 10.0 mi SSE 10.4 mph 17.3 mph N/A   Clear